KAL9985 RKSI-UDYZ
Flight info
| Callsign | KAL9985 |
|---|---|
| Flight time | N/A |
| Altitude | 34000 |
| Route | BINIL Y697 AGAVO/K0900S1040 A591 IKEKA W4 HCH W200 DOVIV W55 PAMRU W34 VYK B215 LEBOM W104 VEXEB W47 IDSOT W48 LAVOM/K0889S1100 W48 DKO W66 NUKTI B215 FKG A368 SARIN/K0867F360 N161 GOMAL/K0872F380 N161 GASBI/N0476F380 N161 LEYLA N644 ADEKI DCT LAMUS/N0479F390 DCT LEYLA/N0482F400 T916 SEVAN |
| Aircraft | B77W/H-SDE1E2E3FGHIJ2J3J4J5M1RWXY/LB1D1 |
Departure
| Time | 2026-05-07 03:43 |
|---|---|
| Airport | Incheon International Airport (RKSI) |
Arrival
| Time | N/A |
|---|---|
| Airport | Zvartnots International Airport (UDYZ) |
| Time | Latitude | Longitude | Altitude | Speed | Heading |
|---|---|---|---|---|---|
| 2026-05-07 03:26 | 37.46778 | 126.42831 | 38 ft | 0 kts | 52° |
| 2026-05-07 03:35 | 37.46774 | 126.42825 | 38 ft | 2 kts | 52° |
| 2026-05-07 03:35 | 37.46762 | 126.42805 | 37 ft | 3 kts | 52° |
| 2026-05-07 03:35 | 37.46752 | 126.42789 | 36 ft | 2 kts | 51° |
| 2026-05-07 03:35 | 37.46740 | 126.42772 | 36 ft | 3 kts | 34° |
| 2026-05-07 03:36 | 37.46726 | 126.42763 | 36 ft | 3 kts | 7° |
| 2026-05-07 03:36 | 37.46713 | 126.42762 | 36 ft | 3 kts | 335° |
| 2026-05-07 03:36 | 37.46698 | 126.42774 | 35 ft | 3 kts | 320° |
| 2026-05-07 03:36 | 37.46683 | 126.42790 | 35 ft | 2 kts | 322° |
| 2026-05-07 03:37 | 37.46676 | 126.42797 | 36 ft | 1 kts | 323° |
| 2026-05-07 03:39 | 37.46685 | 126.42789 | 38 ft | 6 kts | 325° |
| 2026-05-07 03:39 | 37.46745 | 126.42731 | 38 ft | 13 kts | 319° |
| 2026-05-07 03:39 | 37.46799 | 126.42665 | 36 ft | 10 kts | 301° |
| 2026-05-07 03:39 | 37.46792 | 126.42582 | 38 ft | 10 kts | 244° |
| 2026-05-07 03:40 | 37.46754 | 126.42509 | 38 ft | 10 kts | 245° |
| 2026-05-07 03:40 | 37.46776 | 126.42429 | 38 ft | 12 kts | 317° |
| 2026-05-07 03:40 | 37.46883 | 126.42331 | 38 ft | 28 kts | 325° |
| 2026-05-07 03:40 | 37.47042 | 126.42190 | 38 ft | 28 kts | 325° |
| 2026-05-07 03:41 | 37.47204 | 126.42045 | 38 ft | 28 kts | 324° |
| 2026-05-07 03:41 | 37.47356 | 126.41911 | 38 ft | 20 kts | 324° |
| 2026-05-07 03:41 | 37.47402 | 126.41831 | 38 ft | 11 kts | 263° |
| 2026-05-07 03:41 | 37.47371 | 126.41746 | 38 ft | 11 kts | 230° |
| 2026-05-07 03:42 | 37.47325 | 126.41670 | 38 ft | 11 kts | 234° |
| 2026-05-07 03:42 | 37.47282 | 126.41601 | 38 ft | 9 kts | 215° |
| 2026-05-07 03:42 | 37.47227 | 126.41608 | 38 ft | 6 kts | 151° |
| 2026-05-07 03:42 | 37.47195 | 126.41635 | 38 ft | 13 kts | 146° |
| 2026-05-07 03:43 | 37.46944 | 126.41856 | 38 ft | 86 kts | 144° |
| 2026-05-07 03:43 | 37.46244 | 126.42480 | 38 ft | 161 kts | 145° |
| 2026-05-07 03:43 | 37.45254 | 126.43366 | 588 ft | 175 kts | 147° |
| 2026-05-07 03:43 | 37.44205 | 126.44239 | 1334 ft | 186 kts | 155° |
| 2026-05-07 03:44 | 37.43087 | 126.45073 | 1972 ft | 195 kts | 156° |
| 2026-05-07 03:44 | 37.41820 | 126.46005 | 2205 ft | 226 kts | 155° |
| 2026-05-07 03:44 | 37.40373 | 126.47075 | 2512 ft | 252 kts | 154° |
| 2026-05-07 03:44 | 37.38822 | 126.48229 | 3136 ft | 263 kts | 155° |
| 2026-05-07 03:45 | 37.37140 | 126.49088 | 3834 ft | 261 kts | 170° |
| 2026-05-07 03:45 | 37.35389 | 126.49631 | 4751 ft | 258 kts | 172° |
| 2026-05-07 03:45 | 37.33623 | 126.50171 | 5496 ft | 263 kts | 172° |
| 2026-05-07 03:45 | 37.31870 | 126.50735 | 6376 ft | 264 kts | 172° |
| 2026-05-07 03:46 | 37.30052 | 126.51330 | 7058 ft | 268 kts | 174° |
| 2026-05-07 03:46 | 37.28261 | 126.51392 | 7660 ft | 257 kts | 200° |
| 2026-05-07 03:46 | 37.26664 | 126.50465 | 8332 ft | 254 kts | 219° |
| 2026-05-07 03:46 | 37.25326 | 126.49003 | 9020 ft | 257 kts | 225° |
| 2026-05-07 03:47 | 37.24025 | 126.47464 | 9716 ft | 256 kts | 226° |
| 2026-05-07 03:47 | 37.22723 | 126.45914 | 9969 ft | 261 kts | 226° |
| 2026-05-07 03:47 | 37.21397 | 126.44336 | 9942 ft | 263 kts | 226° |
| 2026-05-07 03:47 | 37.20066 | 126.42759 | 9944 ft | 262 kts | 226° |
| 2026-05-07 03:48 | 37.18739 | 126.41192 | 9940 ft | 261 kts | 226° |
| 2026-05-07 03:48 | 37.17418 | 126.39636 | 9954 ft | 260 kts | 226° |
| 2026-05-07 03:48 | 37.16096 | 126.38082 | 9932 ft | 260 kts | 225° |
| 2026-05-07 03:48 | 37.14774 | 126.36532 | 9952 ft | 260 kts | 225° |
| 2026-05-07 03:49 | 37.13451 | 126.34984 | 9945 ft | 260 kts | 225° |
| 2026-05-07 03:49 | 37.12127 | 126.33434 | 9941 ft | 261 kts | 225° |
| 2026-05-07 03:49 | 37.10989 | 126.31727 | 9930 ft | 253 kts | 244° |
| 2026-05-07 03:49 | 37.10442 | 126.29604 | 10121 ft | 264 kts | 260° |
| 2026-05-07 03:50 | 37.10304 | 126.27200 | 10297 ft | 289 kts | 266° |
| 2026-05-07 03:50 | 37.10301 | 126.24576 | 10487 ft | 313 kts | 268° |
| 2026-05-07 03:50 | 37.10318 | 126.21750 | 10736 ft | 334 kts | 268° |
| 2026-05-07 03:50 | 37.10320 | 126.18802 | 11371 ft | 342 kts | 268° |
| 2026-05-07 03:51 | 37.10304 | 126.15800 | 12181 ft | 346 kts | 268° |
| 2026-05-07 03:51 | 37.10279 | 126.12780 | 13132 ft | 348 kts | 268° |
| 2026-05-07 03:51 | 37.10391 | 126.09756 | 13882 ft | 352 kts | 278° |
| 2026-05-07 03:51 | 37.11176 | 126.06806 | 14507 ft | 361 kts | 290° |
| 2026-05-07 03:52 | 37.12193 | 126.03950 | 15201 ft | 366 kts | 290° |
| 2026-05-07 03:52 | 37.13233 | 126.01020 | 15988 ft | 369 kts | 290° |
| 2026-05-07 03:52 | 37.14285 | 125.98027 | 16771 ft | 372 kts | 289° |
| 2026-05-07 03:52 | 37.15312 | 125.95077 | 17491 ft | 377 kts | 289° |
| 2026-05-07 03:53 | 37.16359 | 125.92045 | 18203 ft | 381 kts | 289° |
| 2026-05-07 03:53 | 37.17413 | 125.88981 | 18848 ft | 384 kts | 289° |
| 2026-05-07 03:53 | 37.18474 | 125.85890 | 19514 ft | 387 kts | 288° |
| 2026-05-07 03:53 | 37.19540 | 125.82780 | 20162 ft | 390 kts | 288° |
| 2026-05-07 03:54 | 37.20615 | 125.79636 | 20785 ft | 394 kts | 288° |
| 2026-05-07 03:54 | 37.21700 | 125.76461 | 21390 ft | 398 kts | 288° |
| 2026-05-07 03:54 | 37.22793 | 125.73257 | 21972 ft | 401 kts | 288° |
| 2026-05-07 03:54 | 37.23894 | 125.70026 | 22540 ft | 405 kts | 287° |
| 2026-05-07 03:55 | 37.25006 | 125.66760 | 23084 ft | 409 kts | 287° |
| 2026-05-07 03:55 | 37.26128 | 125.63463 | 23614 ft | 412 kts | 287° |
| 2026-05-07 03:55 | 37.27259 | 125.60138 | 24091 ft | 414 kts | 287° |
| 2026-05-07 03:55 | 37.28392 | 125.56805 | 24634 ft | 415 kts | 287° |
| 2026-05-07 03:56 | 37.29525 | 125.53469 | 25170 ft | 416 kts | 287° |
| 2026-05-07 03:56 | 37.30291 | 125.51209 | 25516 ft | 417 kts | 287° |
| 2026-05-07 03:56 | 37.31428 | 125.47849 | 26012 ft | 419 kts | 287° |
| 2026-05-07 03:56 | 37.32568 | 125.44478 | 26500 ft | 420 kts | 287° |
| 2026-05-07 03:57 | 37.34085 | 125.39987 | 27088 ft | 423 kts | 287° |
| 2026-05-07 03:57 | 37.34862 | 125.37683 | 27424 ft | 424 kts | 287° |
| 2026-05-07 03:57 | 37.36013 | 125.34266 | 27892 ft | 426 kts | 287° |
| 2026-05-07 03:57 | 37.37170 | 125.30833 | 28334 ft | 427 kts | 286° |
| 2026-05-07 03:58 | 37.38314 | 125.27430 | 28746 ft | 429 kts | 286° |
| 2026-05-07 03:58 | 37.39352 | 125.23939 | 29059 ft | 424 kts | 279° |
| 2026-05-07 03:58 | 37.39776 | 125.20253 | 29347 ft | 418 kts | 266° |
| 2026-05-07 03:58 | 37.39652 | 125.16611 | 29616 ft | 418 kts | 264° |
| 2026-05-07 03:59 | 37.39543 | 125.12966 | 30095 ft | 416 kts | 265° |
| 2026-05-07 03:59 | 37.39464 | 125.09342 | 30565 ft | 414 kts | 265° |
| 2026-05-07 03:59 | 37.39399 | 125.05729 | 30957 ft | 413 kts | 266° |
| 2026-05-07 03:59 | 37.39338 | 125.02173 | 31290 ft | 413 kts | 266° |
| 2026-05-07 04:00 | 37.39276 | 124.98561 | 31621 ft | 413 kts | 266° |
| 2026-05-07 04:00 | 37.39212 | 124.94948 | 31969 ft | 413 kts | 266° |
| 2026-05-07 04:00 | 37.39147 | 124.91348 | 32341 ft | 411 kts | 266° |
| 2026-05-07 04:00 | 37.39080 | 124.87752 | 32683 ft | 410 kts | 266° |
| 2026-05-07 04:01 | 37.39012 | 124.84171 | 33035 ft | 409 kts | 266° |
| 2026-05-07 04:01 | 37.38941 | 124.80600 | 33372 ft | 409 kts | 266° |
| 2026-05-07 04:01 | 37.38869 | 124.77032 | 33719 ft | 407 kts | 266° |
| 2026-05-07 04:01 | 37.38795 | 124.73463 | 33862 ft | 410 kts | 266° |
| 2026-05-07 04:02 | 37.38719 | 124.69871 | 33903 ft | 412 kts | 266° |
| 2026-05-07 04:02 | 37.38568 | 124.62715 | 33927 ft | 406 kts | 266° |
| 2026-05-07 04:03 | 37.38415 | 124.55642 | 33943 ft | 404 kts | 266° |
| 2026-05-07 04:03 | 37.38248 | 124.48592 | 33942 ft | 403 kts | 265° |
| 2026-05-07 04:04 | 37.37074 | 124.41715 | 33953 ft | 405 kts | 252° |
| 2026-05-07 04:04 | 37.34858 | 124.35186 | 33936 ft | 410 kts | 242° |
| 2026-05-07 04:05 | 37.31769 | 124.29148 | 33940 ft | 411 kts | 240° |
| 2026-05-07 04:05 | 37.28669 | 124.23112 | 33943 ft | 411 kts | 241° |
| 2026-05-07 04:06 | 37.25601 | 124.17056 | 33946 ft | 411 kts | 241° |
| 2026-05-07 04:06 | 37.22523 | 124.11017 | 33943 ft | 411 kts | 240° |
| 2026-05-07 04:07 | 37.19380 | 124.05074 | 33948 ft | 411 kts | 240° |
| 2026-05-07 04:07 | 37.16220 | 123.99093 | 33951 ft | 411 kts | 241° |
| 2026-05-07 04:08 | 37.13105 | 123.93073 | 33955 ft | 412 kts | 241° |
| 2026-05-07 04:08 | 37.10002 | 123.87046 | 33956 ft | 412 kts | 241° |
| 2026-05-07 04:09 | 37.06886 | 123.81015 | 33961 ft | 413 kts | 241° |
| 2026-05-07 04:09 | 37.03759 | 123.74983 | 33959 ft | 413 kts | 241° |
| 2026-05-07 04:10 | 37.00622 | 123.68943 | 33961 ft | 414 kts | 241° |
| 2026-05-07 04:10 | 36.97478 | 123.62901 | 33964 ft | 415 kts | 241° |
| 2026-05-07 04:11 | 36.94321 | 123.56844 | 33969 ft | 416 kts | 241° |
| 2026-05-07 04:11 | 36.91156 | 123.50783 | 33962 ft | 417 kts | 241° |
| 2026-05-07 04:12 | 36.87981 | 123.44710 | 33973 ft | 417 kts | 241° |
| 2026-05-07 04:12 | 36.85106 | 123.38498 | 33967 ft | 408 kts | 255° |
| 2026-05-07 04:13 | 36.84384 | 123.31512 | 33986 ft | 408 kts | 270° |
| 2026-05-07 04:13 | 36.84748 | 123.28001 | 33959 ft | 410 kts | 283° |
| 2026-05-07 04:13 | 36.85586 | 123.24591 | 33996 ft | 412 kts | 284° |
| 2026-05-07 04:14 | 36.87318 | 123.17751 | 33992 ft | 415 kts | 284° |
| 2026-05-07 04:14 | 36.89024 | 123.10854 | 33983 ft | 416 kts | 283° |
| 2026-05-07 04:15 | 36.90701 | 123.03933 | 33993 ft | 416 kts | 283° |
| 2026-05-07 04:15 | 36.92352 | 122.97052 | 33986 ft | 415 kts | 283° |
| 2026-05-07 04:16 | 36.94002 | 122.90146 | 33983 ft | 414 kts | 283° |
| 2026-05-07 04:16 | 36.95642 | 122.83267 | 33998 ft | 413 kts | 283° |
| 2026-05-07 04:17 | 36.97276 | 122.76393 | 33994 ft | 411 kts | 283° |
| 2026-05-07 04:17 | 36.98901 | 122.69538 | 33986 ft | 411 kts | 283° |
| 2026-05-07 04:18 | 37.00520 | 122.62689 | 33989 ft | 410 kts | 283° |
| 2026-05-07 04:18 | 37.02134 | 122.55839 | 33993 ft | 410 kts | 283° |
| 2026-05-07 04:19 | 37.03745 | 122.48988 | 33999 ft | 411 kts | 283° |
| 2026-05-07 04:19 | 37.05354 | 122.42126 | 34001 ft | 411 kts | 283° |
| 2026-05-07 04:20 | 37.07386 | 122.35443 | 34007 ft | 417 kts | 296° |
| 2026-05-07 04:20 | 37.10905 | 122.29588 | 34004 ft | 427 kts | 307° |
| 2026-05-07 04:21 | 37.17454 | 122.22002 | 34025 ft | 418 kts | 300° |
| 2026-05-07 04:21 | 37.20256 | 122.15722 | 34003 ft | 407 kts | 285° |
| 2026-05-07 04:22 | 37.21983 | 122.08962 | 34017 ft | 408 kts | 284° |
| 2026-05-07 04:22 | 37.23710 | 122.02154 | 34023 ft | 411 kts | 284° |
| 2026-05-07 04:23 | 37.25452 | 121.95365 | 34024 ft | 412 kts | 284° |
| 2026-05-07 04:23 | 37.27231 | 121.88465 | 34030 ft | 413 kts | 284° |
| 2026-05-07 04:24 | 37.28995 | 121.81619 | 34028 ft | 412 kts | 284° |
| 2026-05-07 04:24 | 37.30744 | 121.74809 | 34038 ft | 412 kts | 284° |
| 2026-05-07 04:25 | 37.32496 | 121.67968 | 34040 ft | 411 kts | 284° |
| 2026-05-07 04:25 | 37.34243 | 121.61130 | 34035 ft | 411 kts | 284° |
| 2026-05-07 04:26 | 37.35984 | 121.54297 | 34037 ft | 410 kts | 284° |
| 2026-05-07 04:26 | 37.37717 | 121.47475 | 34043 ft | 410 kts | 284° |
| 2026-05-07 04:27 | 37.39446 | 121.40651 | 34044 ft | 409 kts | 284° |
| 2026-05-07 04:27 | 37.41170 | 121.33827 | 34045 ft | 409 kts | 284° |
| 2026-05-07 04:28 | 37.42890 | 121.27002 | 34043 ft | 410 kts | 284° |
| 2026-05-07 04:28 | 37.44609 | 121.20161 | 34053 ft | 410 kts | 284° |
| 2026-05-07 04:29 | 37.46573 | 121.13398 | 34051 ft | 413 kts | 288° |
| 2026-05-07 04:29 | 37.48725 | 121.06697 | 34052 ft | 413 kts | 288° |
| 2026-05-07 04:30 | 37.50870 | 120.99978 | 34061 ft | 413 kts | 288° |
| 2026-05-07 04:30 | 37.53001 | 120.93256 | 34068 ft | 414 kts | 288° |
| 2026-05-07 04:31 | 37.55128 | 120.86527 | 34059 ft | 413 kts | 288° |
| 2026-05-07 04:31 | 37.57247 | 120.79805 | 34075 ft | 412 kts | 288° |
| 2026-05-07 04:32 | 37.59374 | 120.73097 | 34065 ft | 412 kts | 288° |
| 2026-05-07 04:32 | 37.61578 | 120.66432 | 34086 ft | 412 kts | 289° |
| 2026-05-07 04:33 | 37.63779 | 120.59762 | 34073 ft | 411 kts | 289° |
| 2026-05-07 04:33 | 37.66093 | 120.53154 | 34096 ft | 414 kts | 293° |
| 2026-05-07 04:34 | 37.68980 | 120.46842 | 34088 ft | 415 kts | 295° |
| 2026-05-07 04:34 | 37.71877 | 120.40530 | 34095 ft | 415 kts | 295° |
| 2026-05-07 04:35 | 37.74741 | 120.34254 | 34090 ft | 415 kts | 295° |
| 2026-05-07 04:35 | 37.77633 | 120.27891 | 34095 ft | 415 kts | 295° |
| 2026-05-07 04:36 | 37.80478 | 120.21615 | 34094 ft | 414 kts | 295° |
| 2026-05-07 04:36 | 37.83343 | 120.15286 | 34099 ft | 414 kts | 295° |
| 2026-05-07 04:37 | 37.86197 | 120.08968 | 34093 ft | 414 kts | 295° |
| 2026-05-07 04:37 | 37.89048 | 120.02643 | 34107 ft | 414 kts | 295° |
| 2026-05-07 04:38 | 37.91896 | 119.96314 | 34093 ft | 413 kts | 295° |
| 2026-05-07 04:38 | 37.94738 | 119.89985 | 34106 ft | 413 kts | 294° |
| 2026-05-07 04:39 | 37.97578 | 119.83649 | 34093 ft | 413 kts | 294° |
| 2026-05-07 04:39 | 38.00414 | 119.77308 | 34109 ft | 414 kts | 294° |
| 2026-05-07 04:40 | 38.03249 | 119.70957 | 34101 ft | 414 kts | 294° |
| 2026-05-07 04:40 | 38.06080 | 119.64601 | 34114 ft | 414 kts | 294° |
| 2026-05-07 04:41 | 38.08912 | 119.58234 | 34103 ft | 414 kts | 294° |
| 2026-05-07 04:41 | 38.11623 | 119.51801 | 34118 ft | 411 kts | 289° |
| 2026-05-07 04:42 | 38.13800 | 119.45096 | 34099 ft | 411 kts | 288° |
| 2026-05-07 04:42 | 38.15609 | 119.39512 | 34115 ft | 411 kts | 288° |
| 2026-05-07 04:43 | 38.17793 | 119.32790 | 34114 ft | 412 kts | 288° |
| 2026-05-07 04:43 | 38.20335 | 119.24961 | 34116 ft | 412 kts | 288° |
| 2026-05-07 04:44 | 38.22519 | 119.18219 | 34108 ft | 413 kts | 288° |
| 2026-05-07 04:44 | 38.24349 | 119.12555 | 34117 ft | 413 kts | 288° |
| 2026-05-07 04:45 | 38.26531 | 119.05788 | 34112 ft | 413 kts | 288° |
| 2026-05-07 04:45 | 38.28710 | 118.99013 | 34122 ft | 414 kts | 288° |
| 2026-05-07 04:46 | 38.30886 | 118.92232 | 34115 ft | 414 kts | 288° |
| 2026-05-07 04:46 | 38.33044 | 118.85492 | 34125 ft | 414 kts | 288° |
| 2026-05-07 04:47 | 38.35215 | 118.78696 | 34121 ft | 414 kts | 288° |
| 2026-05-07 04:47 | 38.37381 | 118.71893 | 34128 ft | 414 kts | 288° |
| 2026-05-07 04:48 | 38.39543 | 118.65081 | 34122 ft | 415 kts | 287° |
| 2026-05-07 04:48 | 38.41703 | 118.58258 | 34128 ft | 415 kts | 287° |
| 2026-05-07 04:49 | 38.43860 | 118.51428 | 34123 ft | 415 kts | 287° |
| 2026-05-07 04:49 | 38.46018 | 118.44582 | 34136 ft | 416 kts | 287° |
| 2026-05-07 04:50 | 38.48173 | 118.37733 | 34123 ft | 416 kts | 287° |
| 2026-05-07 04:50 | 38.50336 | 118.30873 | 34133 ft | 416 kts | 287° |
| 2026-05-07 04:51 | 38.52495 | 118.24014 | 34124 ft | 417 kts | 287° |
| 2026-05-07 04:51 | 38.54650 | 118.17143 | 34133 ft | 417 kts | 287° |
| 2026-05-07 04:52 | 38.56801 | 118.10273 | 34139 ft | 417 kts | 286° |
| 2026-05-07 04:52 | 38.59517 | 118.03658 | 34147 ft | 425 kts | 296° |
| 2026-05-07 04:53 | 38.63053 | 117.97527 | 34126 ft | 433 kts | 304° |
| 2026-05-07 04:53 | 38.67230 | 117.91937 | 34136 ft | 435 kts | 306° |
| 2026-05-07 04:54 | 38.71452 | 117.86402 | 34125 ft | 434 kts | 306° |
| 2026-05-07 04:54 | 38.75645 | 117.80844 | 34135 ft | 433 kts | 306° |
| 2026-05-07 04:55 | 38.79812 | 117.75271 | 34127 ft | 433 kts | 306° |
| 2026-05-07 04:55 | 38.83975 | 117.69686 | 34134 ft | 433 kts | 306° |
| 2026-05-07 04:56 | 38.88133 | 117.64098 | 34125 ft | 433 kts | 306° |
| 2026-05-07 04:56 | 38.92294 | 117.58498 | 34137 ft | 434 kts | 306° |
| 2026-05-07 04:57 | 38.96456 | 117.52886 | 34124 ft | 434 kts | 306° |
| 2026-05-07 04:57 | 39.00619 | 117.47263 | 34133 ft | 434 kts | 306° |
| 2026-05-07 04:58 | 39.04747 | 117.41605 | 34115 ft | 429 kts | 301° |
| 2026-05-07 04:58 | 39.07654 | 117.35097 | 34140 ft | 417 kts | 287° |
| 2026-05-07 04:59 | 39.09238 | 117.27965 | 34136 ft | 414 kts | 276° |
| 2026-05-07 04:59 | 39.10138 | 117.20668 | 34131 ft | 416 kts | 276° |
| 2026-05-07 05:00 | 39.11067 | 117.13311 | 34123 ft | 417 kts | 276° |
| 2026-05-07 05:00 | 39.12022 | 117.05966 | 34135 ft | 415 kts | 276° |
| 2026-05-07 05:01 | 39.12973 | 116.98654 | 34130 ft | 413 kts | 276° |
| 2026-05-07 05:01 | 39.14087 | 116.91403 | 34145 ft | 412 kts | 278° |
| 2026-05-07 05:02 | 39.15265 | 116.84194 | 34139 ft | 411 kts | 278° |
| 2026-05-07 05:02 | 39.16412 | 116.76987 | 34153 ft | 410 kts | 278° |
| 2026-05-07 05:03 | 39.17540 | 116.69794 | 34138 ft | 409 kts | 277° |
| 2026-05-07 05:03 | 39.18596 | 116.62598 | 34149 ft | 407 kts | 272° |
| 2026-05-07 05:04 | 39.18533 | 116.55354 | 34182 ft | 404 kts | 264° |
| 2026-05-07 05:04 | 39.17518 | 116.48229 | 34160 ft | 406 kts | 255° |
| 2026-05-07 05:05 | 39.15883 | 116.41255 | 34169 ft | 407 kts | 254° |
| 2026-05-07 05:05 | 39.14229 | 116.34263 | 34158 ft | 409 kts | 254° |
| 2026-05-07 05:06 | 39.12596 | 116.27281 | 34170 ft | 410 kts | 254° |
| 2026-05-07 05:06 | 39.10960 | 116.20247 | 34162 ft | 411 kts | 254° |
| 2026-05-07 05:07 | 39.09318 | 116.13197 | 34168 ft | 411 kts | 254° |
| 2026-05-07 05:07 | 39.07673 | 116.06153 | 34160 ft | 411 kts | 254° |
| 2026-05-07 05:08 | 39.06023 | 115.99108 | 34171 ft | 411 kts | 254° |
| 2026-05-07 05:08 | 39.04367 | 115.92060 | 34160 ft | 412 kts | 254° |
| 2026-05-07 05:09 | 39.02706 | 115.85013 | 34174 ft | 412 kts | 254° |
| 2026-05-07 05:09 | 39.01039 | 115.77966 | 34167 ft | 412 kts | 254° |
| 2026-05-07 05:10 | 38.99366 | 115.70910 | 34173 ft | 413 kts | 254° |
| 2026-05-07 05:10 | 38.97686 | 115.63844 | 34165 ft | 414 kts | 253° |
| 2026-05-07 05:11 | 38.95999 | 115.56765 | 34178 ft | 415 kts | 254° |
| 2026-05-07 05:11 | 38.94222 | 115.49714 | 34170 ft | 416 kts | 250° |
| 2026-05-07 05:12 | 38.91872 | 115.42964 | 34182 ft | 417 kts | 248° |
| 2026-05-07 05:12 | 38.89470 | 115.36171 | 34167 ft | 418 kts | 248° |
| 2026-05-07 05:13 | 38.87071 | 115.29358 | 34181 ft | 419 kts | 248° |
| 2026-05-07 05:13 | 38.84666 | 115.22535 | 34172 ft | 420 kts | 248° |
| 2026-05-07 05:14 | 38.82256 | 115.15714 | 34181 ft | 420 kts | 248° |
| 2026-05-07 05:14 | 38.79839 | 115.08890 | 34171 ft | 421 kts | 248° |
| 2026-05-07 05:15 | 38.77415 | 115.02062 | 34181 ft | 421 kts | 248° |
| 2026-05-07 05:15 | 38.74986 | 114.95235 | 34167 ft | 421 kts | 248° |
| 2026-05-07 05:16 | 38.72555 | 114.88405 | 34186 ft | 422 kts | 248° |
| 2026-05-07 05:16 | 38.70120 | 114.81570 | 34172 ft | 422 kts | 248° |
| 2026-05-07 05:17 | 38.67677 | 114.74728 | 34179 ft | 423 kts | 248° |
| 2026-05-07 05:17 | 38.65228 | 114.67884 | 34167 ft | 423 kts | 248° |
| 2026-05-07 05:18 | 38.62770 | 114.61033 | 34187 ft | 424 kts | 248° |
| 2026-05-07 05:18 | 38.60317 | 114.54187 | 34171 ft | 424 kts | 248° |
| 2026-05-07 05:19 | 38.57857 | 114.47350 | 34192 ft | 423 kts | 248° |
| 2026-05-07 05:19 | 38.55379 | 114.40530 | 34179 ft | 423 kts | 248° |
| 2026-05-07 05:20 | 38.52902 | 114.33726 | 34192 ft | 422 kts | 248° |
| 2026-05-07 05:20 | 38.50432 | 114.26944 | 34181 ft | 421 kts | 248° |
| 2026-05-07 05:21 | 38.46724 | 114.16793 | 34188 ft | 420 kts | 248° |
| 2026-05-07 05:22 | 38.44258 | 114.10056 | 34185 ft | 419 kts | 248° |
| 2026-05-07 05:22 | 38.41792 | 114.03338 | 34206 ft | 418 kts | 248° |
| 2026-05-07 05:23 | 38.39349 | 113.96679 | 34187 ft | 416 kts | 248° |
| 2026-05-07 05:23 | 38.36900 | 113.90011 | 34197 ft | 415 kts | 249° |
| 2026-05-07 05:24 | 38.34454 | 113.83365 | 34196 ft | 414 kts | 249° |
| 2026-05-07 05:24 | 38.31984 | 113.76751 | 34200 ft | 413 kts | 248° |
| 2026-05-07 05:25 | 38.29493 | 113.70173 | 34195 ft | 412 kts | 249° |
| 2026-05-07 05:25 | 38.27002 | 113.63589 | 34197 ft | 413 kts | 249° |
| 2026-05-07 05:26 | 38.24508 | 113.57005 | 34191 ft | 412 kts | 249° |
| 2026-05-07 05:26 | 38.22018 | 113.50439 | 34220 ft | 411 kts | 249° |
| 2026-05-07 05:27 | 38.19529 | 113.43891 | 34206 ft | 411 kts | 249° |
| 2026-05-07 05:27 | 38.17040 | 113.37356 | 34202 ft | 410 kts | 249° |
| 2026-05-07 05:28 | 38.14578 | 113.30825 | 34224 ft | 409 kts | 250° |
| 2026-05-07 05:28 | 38.12152 | 113.24298 | 34212 ft | 408 kts | 250° |
| 2026-05-07 05:29 | 38.09725 | 113.17784 | 34218 ft | 408 kts | 250° |
| 2026-05-07 05:29 | 38.07294 | 113.11282 | 34207 ft | 407 kts | 250° |
| 2026-05-07 05:30 | 38.04877 | 113.04839 | 34216 ft | 407 kts | 250° |
| 2026-05-07 05:30 | 38.02439 | 112.98356 | 34236 ft | 407 kts | 250° |
| 2026-05-07 05:31 | 38.00001 | 112.91881 | 34208 ft | 407 kts | 250° |
| 2026-05-07 05:31 | 37.97555 | 112.85400 | 34226 ft | 408 kts | 250° |
| 2026-05-07 05:32 | 37.95513 | 112.79999 | 34213 ft | 409 kts | 250° |
| 2026-05-07 05:32 | 37.92628 | 112.72390 | 34216 ft | 411 kts | 250° |
| 2026-05-07 05:33 | 37.90570 | 112.66971 | 34206 ft | 412 kts | 250° |
| 2026-05-07 05:33 | 37.88083 | 112.60433 | 34214 ft | 412 kts | 250° |
| 2026-05-07 05:34 | 37.85463 | 112.53948 | 34201 ft | 415 kts | 247° |
| 2026-05-07 05:34 | 37.82680 | 112.47559 | 34210 ft | 414 kts | 247° |
| 2026-05-07 05:35 | 37.79948 | 112.41154 | 34204 ft | 411 kts | 249° |
| 2026-05-07 05:35 | 37.78380 | 112.34335 | 34216 ft | 403 kts | 264° |
| 2026-05-07 05:36 | 37.78075 | 112.27292 | 34203 ft | 402 kts | 276° |
| 2026-05-07 05:36 | 37.78791 | 112.20273 | 34207 ft | 404 kts | 277° |
| 2026-05-07 05:37 | 37.79522 | 112.13257 | 34201 ft | 405 kts | 277° |
| 2026-05-07 05:37 | 37.80222 | 112.06175 | 34206 ft | 406 kts | 277° |
| 2026-05-07 05:38 | 37.80904 | 111.99084 | 34208 ft | 406 kts | 277° |
| 2026-05-07 05:38 | 37.81580 | 111.91995 | 34216 ft | 405 kts | 276° |
| 2026-05-07 05:39 | 37.82249 | 111.84932 | 34212 ft | 404 kts | 276° |
| 2026-05-07 05:39 | 37.82909 | 111.77919 | 34343 ft | 395 kts | 278° |
| 2026-05-07 05:39 | 37.83227 | 111.74524 | 34273 ft | 383 kts | 278° |
| 2026-05-07 05:40 | 37.83536 | 111.71212 | 34217 ft | 375 kts | 278° |
| 2026-05-07 05:40 | 37.84239 | 111.64637 | 34230 ft | 381 kts | 279° |
| 2026-05-07 05:41 | 37.84963 | 111.57922 | 34231 ft | 387 kts | 278° |
| 2026-05-07 05:41 | 37.85581 | 111.54639 | 34233 ft | 385 kts | 290° |
| 2026-05-07 05:41 | 37.86764 | 111.51582 | 34238 ft | 389 kts | 296° |
| 2026-05-07 05:42 | 37.89865 | 111.45964 | 34226 ft | 393 kts | 308° |
| 2026-05-07 05:42 | 37.94162 | 111.41607 | 34241 ft | 398 kts | 314° |
| 2026-05-07 05:43 | 37.98575 | 111.37366 | 34239 ft | 398 kts | 314° |
| 2026-05-07 05:43 | 38.02966 | 111.33094 | 34248 ft | 398 kts | 314° |
| 2026-05-07 05:44 | 38.07342 | 111.28791 | 34253 ft | 398 kts | 314° |
| 2026-05-07 05:44 | 38.11713 | 111.24472 | 34253 ft | 398 kts | 314° |
| 2026-05-07 05:45 | 38.16083 | 111.20145 | 34253 ft | 398 kts | 314° |
| 2026-05-07 05:45 | 38.20416 | 111.15847 | 34257 ft | 398 kts | 314° |
| 2026-05-07 05:46 | 38.24778 | 111.11515 | 34258 ft | 398 kts | 314° |
| 2026-05-07 05:46 | 38.29137 | 111.07178 | 34250 ft | 397 kts | 314° |
| 2026-05-07 05:47 | 38.33482 | 111.02850 | 34254 ft | 396 kts | 314° |
| 2026-05-07 05:47 | 38.37820 | 110.98520 | 34249 ft | 396 kts | 314° |
| 2026-05-07 05:48 | 38.42149 | 110.94192 | 34255 ft | 395 kts | 314° |
| 2026-05-07 05:48 | 38.46477 | 110.89859 | 34247 ft | 396 kts | 314° |
| 2026-05-07 05:49 | 38.50806 | 110.85517 | 34227 ft | 396 kts | 314° |
| 2026-05-07 05:49 | 38.55127 | 110.81181 | 34262 ft | 395 kts | 314° |
| 2026-05-07 05:50 | 38.59448 | 110.76832 | 34244 ft | 396 kts | 314° |
| 2026-05-07 05:50 | 38.63774 | 110.72472 | 34243 ft | 396 kts | 314° |
| 2026-05-07 05:51 | 38.68106 | 110.68101 | 34243 ft | 397 kts | 314° |
| 2026-05-07 05:51 | 38.72445 | 110.63716 | 34243 ft | 398 kts | 314° |
| 2026-05-07 05:52 | 38.76789 | 110.59319 | 34244 ft | 398 kts | 314° |
| 2026-05-07 05:52 | 38.81134 | 110.54913 | 34241 ft | 398 kts | 314° |
| 2026-05-07 05:53 | 38.85472 | 110.50508 | 34246 ft | 398 kts | 314° |
| 2026-05-07 05:53 | 38.89811 | 110.46094 | 34230 ft | 398 kts | 314° |
| 2026-05-07 05:54 | 38.94112 | 110.41714 | 34230 ft | 397 kts | 314° |
| 2026-05-07 05:54 | 38.98448 | 110.37316 | 34240 ft | 397 kts | 315° |
| 2026-05-07 05:55 | 39.02804 | 110.32925 | 34226 ft | 398 kts | 315° |
| 2026-05-07 05:55 | 39.07159 | 110.28522 | 34227 ft | 399 kts | 315° |
| 2026-05-07 05:56 | 39.11526 | 110.24099 | 34225 ft | 400 kts | 315° |
| 2026-05-07 05:56 | 39.15839 | 110.19607 | 34210 ft | 393 kts | 308° |
| 2026-05-07 05:56 | 39.17452 | 110.16817 | 34222 ft | 387 kts | 297° |
| 2026-05-07 05:57 | 39.18651 | 110.13720 | 34232 ft | 387 kts | 292° |
| 2026-05-07 05:57 | 39.19955 | 110.06984 | 34230 ft | 392 kts | 276° |
| 2026-05-07 05:58 | 39.20228 | 109.99890 | 34215 ft | 399 kts | 276° |
| 2026-05-07 05:58 | 39.20513 | 109.92735 | 34198 ft | 396 kts | 276° |
| 2026-05-07 05:59 | 39.20821 | 109.85706 | 34200 ft | 391 kts | 276° |
| 2026-05-07 05:59 | 39.21137 | 109.78720 | 34205 ft | 390 kts | 276° |
| 2026-05-07 06:00 | 39.21453 | 109.71726 | 34204 ft | 391 kts | 276° |
| 2026-05-07 06:00 | 39.21762 | 109.64729 | 34201 ft | 391 kts | 276° |
| 2026-05-07 06:01 | 39.22068 | 109.57728 | 34202 ft | 391 kts | 276° |
| 2026-05-07 06:01 | 39.22370 | 109.50716 | 34197 ft | 392 kts | 276° |
| 2026-05-07 06:02 | 39.22651 | 109.43698 | 34191 ft | 393 kts | 276° |
| 2026-05-07 06:02 | 39.22915 | 109.36660 | 34189 ft | 393 kts | 276° |
| 2026-05-07 06:03 | 39.23176 | 109.29620 | 34188 ft | 393 kts | 276° |
| 2026-05-07 06:03 | 39.23436 | 109.22583 | 34178 ft | 392 kts | 276° |
| 2026-05-07 06:04 | 39.23691 | 109.15560 | 34186 ft | 392 kts | 276° |
| 2026-05-07 06:04 | 39.23941 | 109.08579 | 34178 ft | 392 kts | 276° |
| 2026-05-07 06:05 | 39.24188 | 109.01549 | 34183 ft | 392 kts | 276° |
| 2026-05-07 06:05 | 39.24431 | 108.94516 | 34181 ft | 392 kts | 275° |
| 2026-05-07 06:06 | 39.24670 | 108.87489 | 34180 ft | 392 kts | 275° |
| 2026-05-07 06:06 | 39.24906 | 108.80457 | 34184 ft | 392 kts | 275° |
| 2026-05-07 06:07 | 39.25145 | 108.73418 | 34174 ft | 393 kts | 275° |
| 2026-05-07 06:07 | 39.25380 | 108.66377 | 34187 ft | 393 kts | 275° |
| 2026-05-07 06:08 | 39.25611 | 108.59331 | 34171 ft | 393 kts | 275° |
| 2026-05-07 06:08 | 39.25838 | 108.52284 | 34167 ft | 393 kts | 275° |
| 2026-05-07 06:09 | 39.26061 | 108.45230 | 34173 ft | 394 kts | 275° |
| 2026-05-07 06:09 | 39.26279 | 108.38171 | 34171 ft | 394 kts | 275° |
| 2026-05-07 06:10 | 39.26493 | 108.31107 | 34167 ft | 394 kts | 275° |
| 2026-05-07 06:10 | 39.26703 | 108.24089 | 34172 ft | 394 kts | 275° |
| 2026-05-07 06:11 | 39.26925 | 108.17029 | 34163 ft | 390 kts | 278° |
| 2026-05-07 06:11 | 39.27549 | 108.13651 | 34178 ft | 389 kts | 290° |
| 2026-05-07 06:11 | 39.28701 | 108.10484 | 34184 ft | 391 kts | 296° |
| 2026-05-07 06:12 | 39.31962 | 108.04824 | 34167 ft | 400 kts | 313° |
| 2026-05-07 06:12 | 39.36280 | 108.00235 | 34178 ft | 403 kts | 314° |
| 2026-05-07 06:13 | 39.40634 | 107.95622 | 34182 ft | 406 kts | 314° |
| 2026-05-07 06:13 | 39.44983 | 107.90953 | 34171 ft | 407 kts | 314° |
| 2026-05-07 06:14 | 39.49322 | 107.86256 | 34171 ft | 406 kts | 314° |
| 2026-05-07 06:14 | 39.53646 | 107.81556 | 34158 ft | 405 kts | 314° |
| 2026-05-07 06:15 | 39.57958 | 107.76860 | 34159 ft | 404 kts | 314° |
| 2026-05-07 06:15 | 39.62261 | 107.72165 | 34161 ft | 404 kts | 314° |
| 2026-05-07 06:16 | 39.66562 | 107.67464 | 34160 ft | 404 kts | 314° |
| 2026-05-07 06:16 | 39.70840 | 107.62780 | 34157 ft | 405 kts | 314° |
| 2026-05-07 06:17 | 39.75177 | 107.58024 | 34161 ft | 406 kts | 314° |
| 2026-05-07 06:17 | 39.79468 | 107.53311 | 34158 ft | 407 kts | 314° |
| 2026-05-07 06:18 | 39.83794 | 107.48552 | 34147 ft | 408 kts | 314° |
| 2026-05-07 06:18 | 39.88127 | 107.43777 | 34159 ft | 408 kts | 314° |
| 2026-05-07 06:19 | 39.92467 | 107.38986 | 34150 ft | 409 kts | 314° |
| 2026-05-07 06:19 | 39.96813 | 107.34180 | 34144 ft | 410 kts | 314° |
| 2026-05-07 06:20 | 40.01167 | 107.29356 | 34143 ft | 411 kts | 314° |
| 2026-05-07 06:20 | 40.05527 | 107.24518 | 34153 ft | 412 kts | 315° |
| 2026-05-07 06:21 | 40.09896 | 107.19660 | 34147 ft | 413 kts | 315° |
| 2026-05-07 06:21 | 40.14275 | 107.14784 | 34139 ft | 414 kts | 315° |
| 2026-05-07 06:22 | 40.18658 | 107.09894 | 34141 ft | 415 kts | 315° |
| 2026-05-07 06:22 | 40.24538 | 107.03320 | 34135 ft | 416 kts | 315° |
| 2026-05-07 06:23 | 40.28686 | 106.98170 | 34137 ft | 411 kts | 305° |
| 2026-05-07 06:23 | 40.31825 | 106.91880 | 34130 ft | 410 kts | 296° |
| 2026-05-07 06:24 | 40.33926 | 106.84965 | 34132 ft | 410 kts | 289° |
| 2026-05-07 06:24 | 40.35758 | 106.77919 | 34126 ft | 411 kts | 289° |
| 2026-05-07 06:25 | 40.37622 | 106.70765 | 34123 ft | 413 kts | 289° |
| 2026-05-07 06:25 | 40.39496 | 106.63644 | 34126 ft | 413 kts | 289° |
| 2026-05-07 06:26 | 40.41378 | 106.56514 | 34123 ft | 413 kts | 289° |
| 2026-05-07 06:26 | 40.43245 | 106.49430 | 34122 ft | 413 kts | 289° |
| 2026-05-07 06:27 | 40.45119 | 106.42299 | 34117 ft | 413 kts | 289° |
| 2026-05-07 06:27 | 40.46987 | 106.35172 | 34126 ft | 413 kts | 289° |
| 2026-05-07 06:28 | 40.48850 | 106.28037 | 34117 ft | 413 kts | 289° |
| 2026-05-07 06:28 | 40.50712 | 106.20891 | 34127 ft | 414 kts | 289° |
| 2026-05-07 06:29 | 40.52570 | 106.13736 | 34110 ft | 414 kts | 289° |
| 2026-05-07 06:29 | 40.54425 | 106.06573 | 34101 ft | 414 kts | 289° |
| 2026-05-07 06:30 | 40.56276 | 105.99403 | 34111 ft | 414 kts | 288° |
| 2026-05-07 06:30 | 40.58123 | 105.92225 | 34116 ft | 414 kts | 288° |
| 2026-05-07 06:31 | 40.59969 | 105.85037 | 34112 ft | 415 kts | 288° |
| 2026-05-07 06:31 | 40.61811 | 105.77836 | 34106 ft | 415 kts | 288° |
| 2026-05-07 06:32 | 40.63652 | 105.70623 | 34102 ft | 415 kts | 288° |
| 2026-05-07 06:32 | 40.65486 | 105.63411 | 34094 ft | 415 kts | 288° |
| 2026-05-07 06:33 | 40.67306 | 105.56237 | 34091 ft | 416 kts | 288° |
| 2026-05-07 06:33 | 40.69134 | 105.49005 | 34090 ft | 416 kts | 288° |
| 2026-05-07 06:34 | 40.70959 | 105.41765 | 34076 ft | 417 kts | 288° |
| 2026-05-07 06:34 | 40.72782 | 105.34512 | 34079 ft | 417 kts | 288° |
| 2026-05-07 06:35 | 40.74602 | 105.27250 | 34077 ft | 417 kts | 288° |
| 2026-05-07 06:35 | 40.76418 | 105.19979 | 34073 ft | 418 kts | 288° |
| 2026-05-07 06:36 | 40.78231 | 105.12701 | 34073 ft | 418 kts | 288° |
| 2026-05-07 06:36 | 40.80042 | 105.05405 | 34066 ft | 418 kts | 288° |
| 2026-05-07 06:37 | 40.81849 | 104.98103 | 34074 ft | 419 kts | 288° |
| 2026-05-07 06:37 | 40.83655 | 104.90785 | 34068 ft | 419 kts | 288° |
| 2026-05-07 06:38 | 40.85458 | 104.83457 | 34063 ft | 420 kts | 288° |
| 2026-05-07 06:38 | 40.87258 | 104.76117 | 34068 ft | 420 kts | 288° |
| 2026-05-07 06:39 | 40.89053 | 104.68770 | 34065 ft | 420 kts | 287° |
| 2026-05-07 06:39 | 40.90846 | 104.61413 | 34066 ft | 421 kts | 287° |
| 2026-05-07 06:40 | 40.92636 | 104.54045 | 34066 ft | 421 kts | 287° |
| 2026-05-07 06:40 | 40.94420 | 104.46677 | 34059 ft | 421 kts | 287° |
| 2026-05-07 06:41 | 40.96202 | 104.39297 | 34067 ft | 421 kts | 287° |
| 2026-05-07 06:41 | 40.97982 | 104.31913 | 34066 ft | 422 kts | 288° |
| 2026-05-07 06:42 | 41.00000 | 104.24677 | 34054 ft | 422 kts | 290° |
| 2026-05-07 06:42 | 41.02113 | 104.17427 | 34056 ft | 422 kts | 290° |
| 2026-05-07 06:43 | 41.04219 | 104.10159 | 34057 ft | 423 kts | 290° |
| 2026-05-07 06:43 | 41.06312 | 104.02874 | 34053 ft | 423 kts | 290° |
| 2026-05-07 06:44 | 41.08400 | 103.95571 | 34051 ft | 424 kts | 290° |
| 2026-05-07 06:44 | 41.10484 | 103.88260 | 34054 ft | 424 kts | 290° |
| 2026-05-07 06:45 | 41.12565 | 103.80933 | 34047 ft | 425 kts | 289° |
| 2026-05-07 06:45 | 41.14649 | 103.73581 | 34045 ft | 426 kts | 289° |
| 2026-05-07 06:46 | 41.16728 | 103.66224 | 34054 ft | 426 kts | 289° |
| 2026-05-07 06:46 | 41.18806 | 103.58849 | 34039 ft | 427 kts | 289° |
| 2026-05-07 06:47 | 41.20881 | 103.51461 | 34041 ft | 427 kts | 289° |
| 2026-05-07 06:47 | 41.22956 | 103.44054 | 34043 ft | 428 kts | 289° |
| 2026-05-07 06:48 | 41.25028 | 103.36636 | 34049 ft | 428 kts | 289° |
| 2026-05-07 06:48 | 41.27096 | 103.29209 | 34044 ft | 429 kts | 289° |
| 2026-05-07 06:49 | 41.29163 | 103.21763 | 34047 ft | 429 kts | 289° |
| 2026-05-07 06:49 | 41.31227 | 103.14309 | 34037 ft | 430 kts | 289° |
| 2026-05-07 06:50 | 41.33288 | 103.06841 | 34037 ft | 431 kts | 289° |
| 2026-05-07 06:50 | 41.35351 | 102.99350 | 34034 ft | 432 kts | 289° |
| 2026-05-07 06:51 | 41.37479 | 102.91871 | 34035 ft | 432 kts | 290° |
| 2026-05-07 06:51 | 41.39650 | 102.84402 | 34035 ft | 433 kts | 290° |
| 2026-05-07 06:52 | 41.41807 | 102.76914 | 34034 ft | 433 kts | 290° |
| 2026-05-07 06:52 | 41.43945 | 102.69454 | 34032 ft | 434 kts | 289° |
| 2026-05-07 06:53 | 41.46108 | 102.61930 | 34030 ft | 435 kts | 290° |
| 2026-05-07 06:53 | 41.48271 | 102.54406 | 34036 ft | 435 kts | 290° |
| 2026-05-07 06:54 | 41.50432 | 102.46865 | 34036 ft | 435 kts | 289° |
| 2026-05-07 06:54 | 41.52590 | 102.39307 | 34029 ft | 436 kts | 289° |
| 2026-05-07 06:55 | 41.54747 | 102.31731 | 34024 ft | 437 kts | 289° |
| 2026-05-07 06:55 | 41.56901 | 102.24139 | 34027 ft | 438 kts | 289° |
| 2026-05-07 06:56 | 41.59055 | 102.16525 | 34023 ft | 439 kts | 289° |
| 2026-05-07 06:56 | 41.61209 | 102.08892 | 34023 ft | 439 kts | 289° |
| 2026-05-07 06:57 | 41.63361 | 102.01240 | 34021 ft | 440 kts | 289° |
| 2026-05-07 06:57 | 41.65511 | 101.93569 | 34024 ft | 441 kts | 289° |
| 2026-05-07 06:58 | 41.67662 | 101.85876 | 34024 ft | 442 kts | 289° |
| 2026-05-07 06:58 | 41.69810 | 101.78167 | 34026 ft | 443 kts | 289° |
| 2026-05-07 06:59 | 41.71958 | 101.70437 | 34024 ft | 443 kts | 289° |
| 2026-05-07 06:59 | 41.74102 | 101.62694 | 34016 ft | 444 kts | 289° |
| 2026-05-07 07:00 | 41.76243 | 101.54941 | 34015 ft | 444 kts | 289° |
| 2026-05-07 07:00 | 41.78381 | 101.47171 | 34016 ft | 445 kts | 289° |
| 2026-05-07 07:01 | 41.80504 | 101.39433 | 34016 ft | 446 kts | 289° |
| 2026-05-07 07:01 | 41.82641 | 101.31624 | 34010 ft | 446 kts | 289° |
| 2026-05-07 07:02 | 41.84505 | 101.23690 | 34011 ft | 446 kts | 281° |
| 2026-05-07 07:02 | 41.85343 | 101.15451 | 34014 ft | 447 kts | 272° |
| 2026-05-07 07:03 | 41.85539 | 101.07129 | 34002 ft | 447 kts | 271° |
| 2026-05-07 07:03 | 41.85700 | 100.98795 | 34003 ft | 447 kts | 272° |
| 2026-05-07 07:04 | 41.85874 | 100.90463 | 34005 ft | 447 kts | 272° |
| 2026-05-07 07:04 | 41.86057 | 100.82129 | 34004 ft | 447 kts | 272° |
| 2026-05-07 07:05 | 41.86239 | 100.73804 | 34001 ft | 446 kts | 272° |
| 2026-05-07 07:05 | 41.86415 | 100.65481 | 34007 ft | 446 kts | 271° |
| 2026-05-07 07:06 | 41.86584 | 100.57164 | 34007 ft | 446 kts | 271° |
| 2026-05-07 07:06 | 41.86747 | 100.48856 | 33997 ft | 445 kts | 271° |
| 2026-05-07 07:07 | 41.86904 | 100.40556 | 34001 ft | 445 kts | 271° |
| 2026-05-07 07:07 | 41.87055 | 100.32255 | 33997 ft | 445 kts | 271° |
| 2026-05-07 07:08 | 41.87200 | 100.23961 | 33991 ft | 445 kts | 271° |
| 2026-05-07 07:08 | 41.87339 | 100.15656 | 33991 ft | 445 kts | 271° |
| 2026-05-07 07:09 | 41.87472 | 100.07339 | 34075 ft | 449 kts | 271° |
| 2026-05-07 07:09 | 41.87536 | 100.03157 | 34423 ft | 447 kts | 271° |
| 2026-05-07 07:09 | 41.87578 | 100.00404 | 34750 ft | 444 kts | 271° |
| 2026-05-07 07:10 | 41.87640 | 99.96282 | 35215 ft | 440 kts | 271° |
| 2026-05-07 07:10 | 41.87699 | 99.92184 | 35584 ft | 438 kts | 271° |
| 2026-05-07 07:10 | 41.87757 | 99.88101 | 35896 ft | 438 kts | 271° |
| 2026-05-07 07:10 | 41.87831 | 99.82665 | 35956 ft | 441 kts | 271° |
| 2026-05-07 07:11 | 41.87922 | 99.75785 | 35983 ft | 439 kts | 271° |
| 2026-05-07 07:11 | 41.88025 | 99.67626 | 35996 ft | 436 kts | 271° |
| 2026-05-07 07:12 | 41.88121 | 99.59493 | 35996 ft | 435 kts | 271° |
| 2026-05-07 07:12 | 41.88211 | 99.51370 | 36000 ft | 435 kts | 271° |
| 2026-05-07 07:13 | 41.88296 | 99.43242 | 36000 ft | 436 kts | 271° |
| 2026-05-07 07:13 | 41.88376 | 99.35105 | 35999 ft | 437 kts | 271° |
| 2026-05-07 07:14 | 41.88449 | 99.26998 | 36001 ft | 437 kts | 270° |
| 2026-05-07 07:14 | 41.88517 | 99.18832 | 36000 ft | 438 kts | 270° |
| 2026-05-07 07:15 | 41.88579 | 99.10650 | 36001 ft | 438 kts | 270° |
| 2026-05-07 07:15 | 41.88635 | 99.02462 | 35995 ft | 439 kts | 270° |
| 2026-05-07 07:16 | 41.88686 | 98.94279 | 35999 ft | 439 kts | 270° |
| 2026-05-07 07:16 | 41.88731 | 98.86092 | 36005 ft | 439 kts | 270° |
| 2026-05-07 07:17 | 41.88770 | 98.77907 | 36008 ft | 438 kts | 270° |
| 2026-05-07 07:17 | 41.88803 | 98.69728 | 36015 ft | 438 kts | 270° |
| 2026-05-07 07:18 | 41.88830 | 98.61550 | 36005 ft | 438 kts | 270° |
| 2026-05-07 07:18 | 41.88852 | 98.53374 | 36012 ft | 438 kts | 270° |
| 2026-05-07 07:19 | 41.88868 | 98.45202 | 36016 ft | 438 kts | 270° |
| 2026-05-07 07:19 | 41.88878 | 98.37019 | 36016 ft | 438 kts | 270° |
| 2026-05-07 07:20 | 41.88882 | 98.28838 | 36015 ft | 438 kts | 270° |
| 2026-05-07 07:20 | 41.88881 | 98.20716 | 36021 ft | 438 kts | 270° |
| 2026-05-07 07:21 | 41.88873 | 98.12536 | 36018 ft | 439 kts | 270° |
| 2026-05-07 07:21 | 41.88860 | 98.04352 | 36020 ft | 438 kts | 270° |
| 2026-05-07 07:22 | 41.88841 | 97.96175 | 36017 ft | 438 kts | 269° |
| 2026-05-07 07:22 | 41.88816 | 97.87990 | 36021 ft | 438 kts | 269° |
| 2026-05-07 07:23 | 41.88786 | 97.79805 | 36017 ft | 439 kts | 269° |
| 2026-05-07 07:23 | 41.88749 | 97.71618 | 36013 ft | 439 kts | 269° |
| 2026-05-07 07:24 | 41.88707 | 97.63422 | 36012 ft | 439 kts | 269° |
| 2026-05-07 07:24 | 41.88659 | 97.55221 | 36024 ft | 439 kts | 269° |
| 2026-05-07 07:25 | 41.88576 | 97.42908 | 36027 ft | 440 kts | 269° |
| 2026-05-07 07:26 | 41.88513 | 97.34749 | 36032 ft | 440 kts | 269° |
| 2026-05-07 07:26 | 41.88444 | 97.26534 | 36031 ft | 440 kts | 269° |
| 2026-05-07 07:27 | 41.88370 | 97.18310 | 36036 ft | 441 kts | 269° |
| 2026-05-07 07:27 | 41.88289 | 97.10089 | 36027 ft | 441 kts | 269° |
| 2026-05-07 07:28 | 41.88203 | 97.01855 | 36033 ft | 441 kts | 269° |
| 2026-05-07 07:28 | 41.88111 | 96.93624 | 36039 ft | 441 kts | 269° |
| 2026-05-07 07:29 | 41.88012 | 96.85389 | 36044 ft | 442 kts | 269° |
| 2026-05-07 07:29 | 41.87908 | 96.77135 | 36051 ft | 442 kts | 269° |
| 2026-05-07 07:30 | 41.87798 | 96.68873 | 36052 ft | 443 kts | 269° |
| 2026-05-07 07:30 | 41.87682 | 96.60609 | 36051 ft | 443 kts | 268° |
| 2026-05-07 07:31 | 41.87559 | 96.52338 | 36053 ft | 444 kts | 268° |
| 2026-05-07 07:31 | 41.87431 | 96.44050 | 36066 ft | 444 kts | 268° |
| 2026-05-07 07:32 | 41.87298 | 96.35816 | 36073 ft | 444 kts | 268° |
| 2026-05-07 07:32 | 41.87158 | 96.27525 | 36074 ft | 444 kts | 268° |
| 2026-05-07 07:33 | 41.87046 | 96.19219 | 36069 ft | 445 kts | 269° |
| 2026-05-07 07:33 | 41.87015 | 96.10915 | 36067 ft | 445 kts | 269° |
| 2026-05-07 07:34 | 41.86984 | 96.02602 | 36078 ft | 446 kts | 269° |
| 2026-05-07 07:34 | 41.86937 | 95.94276 | 36076 ft | 446 kts | 269° |
| 2026-05-07 07:35 | 41.86879 | 95.85953 | 36081 ft | 446 kts | 269° |
| 2026-05-07 07:35 | 41.86814 | 95.77671 | 36059 ft | 447 kts | 269° |
| 2026-05-07 07:36 | 41.86742 | 95.69313 | 36074 ft | 447 kts | 269° |
| 2026-05-07 07:36 | 41.86666 | 95.60959 | 36054 ft | 448 kts | 269° |
| 2026-05-07 07:37 | 41.86583 | 95.52602 | 36059 ft | 448 kts | 269° |
| 2026-05-07 07:37 | 41.86493 | 95.44238 | 36057 ft | 448 kts | 268° |
| 2026-05-07 07:38 | 41.86399 | 95.35917 | 36040 ft | 449 kts | 268° |
| 2026-05-07 07:38 | 41.86299 | 95.27542 | 36049 ft | 449 kts | 269° |
| 2026-05-07 07:38 | 41.86501 | 95.23601 | 36034 ft | 449 kts | 281° |
| 2026-05-07 07:39 | 41.87412 | 95.19595 | 36054 ft | 451 kts | 291° |
| 2026-05-07 07:39 | 41.90816 | 95.12501 | 36051 ft | 456 kts | 309° |
| 2026-05-07 07:40 | 41.95059 | 95.06168 | 36037 ft | 461 kts | 310° |
| 2026-05-07 07:40 | 41.99370 | 94.99739 | 36015 ft | 464 kts | 310° |
| 2026-05-07 07:41 | 42.03662 | 94.93221 | 36004 ft | 466 kts | 309° |
| 2026-05-07 07:41 | 42.07947 | 94.86643 | 36011 ft | 467 kts | 309° |
| 2026-05-07 07:42 | 42.12235 | 94.80036 | 36002 ft | 468 kts | 309° |
| 2026-05-07 07:42 | 42.16491 | 94.73466 | 35989 ft | 467 kts | 309° |
| 2026-05-07 07:43 | 42.20762 | 94.66860 | 35992 ft | 466 kts | 309° |
| 2026-05-07 07:43 | 42.25023 | 94.60255 | 35985 ft | 466 kts | 309° |
| 2026-05-07 07:44 | 42.29270 | 94.53659 | 35980 ft | 465 kts | 309° |
| 2026-05-07 07:44 | 42.33508 | 94.47061 | 35988 ft | 464 kts | 309° |
| 2026-05-07 07:45 | 42.37732 | 94.40469 | 35986 ft | 464 kts | 309° |
| 2026-05-07 07:45 | 42.41926 | 94.33910 | 35980 ft | 463 kts | 309° |
| 2026-05-07 07:46 | 42.46141 | 94.27303 | 35985 ft | 463 kts | 309° |
| 2026-05-07 07:46 | 42.50351 | 94.20689 | 35988 ft | 463 kts | 309° |
| 2026-05-07 07:47 | 42.54556 | 94.14068 | 35990 ft | 463 kts | 309° |
| 2026-05-07 07:47 | 42.58755 | 94.07443 | 35994 ft | 463 kts | 309° |
| 2026-05-07 07:48 | 42.62955 | 94.00799 | 35996 ft | 463 kts | 309° |
| 2026-05-07 07:48 | 42.67150 | 93.94152 | 35984 ft | 464 kts | 309° |
| 2026-05-07 07:49 | 42.71342 | 93.87490 | 35993 ft | 463 kts | 309° |
| 2026-05-07 07:49 | 42.75525 | 93.80826 | 35990 ft | 463 kts | 309° |
| 2026-05-07 07:50 | 42.79707 | 93.74152 | 35999 ft | 463 kts | 309° |
| 2026-05-07 07:50 | 42.83529 | 93.67190 | 35996 ft | 461 kts | 299° |
| 2026-05-07 07:51 | 42.86273 | 93.59316 | 35990 ft | 460 kts | 289° |
| 2026-05-07 07:51 | 42.88329 | 93.51058 | 35981 ft | 460 kts | 288° |
| 2026-05-07 07:52 | 42.90345 | 93.42761 | 35988 ft | 460 kts | 288° |
| 2026-05-07 07:52 | 42.92380 | 93.34474 | 35991 ft | 461 kts | 288° |
| 2026-05-07 07:53 | 42.94429 | 93.26192 | 35987 ft | 461 kts | 288° |
| 2026-05-07 07:53 | 42.96480 | 93.17897 | 35998 ft | 461 kts | 288° |
| 2026-05-07 07:54 | 42.98523 | 93.09603 | 35995 ft | 461 kts | 288° |
| 2026-05-07 07:54 | 43.00561 | 93.01294 | 35995 ft | 461 kts | 288° |
| 2026-05-07 07:55 | 43.02592 | 92.92989 | 35989 ft | 461 kts | 288° |
| 2026-05-07 07:55 | 43.04616 | 92.84677 | 35993 ft | 461 kts | 288° |
| 2026-05-07 07:56 | 43.06633 | 92.76360 | 35990 ft | 460 kts | 288° |
| 2026-05-07 07:56 | 43.08629 | 92.68105 | 35995 ft | 460 kts | 288° |
| 2026-05-07 07:57 | 43.10632 | 92.59788 | 35995 ft | 460 kts | 288° |
| 2026-05-07 07:57 | 43.12628 | 92.51474 | 35997 ft | 459 kts | 288° |
| 2026-05-07 07:58 | 43.14615 | 92.43164 | 36012 ft | 459 kts | 288° |
| 2026-05-07 07:58 | 43.16259 | 92.36262 | 36001 ft | 458 kts | 288° |
| 2026-05-07 07:59 | 43.18553 | 92.26602 | 36002 ft | 458 kts | 288° |
| 2026-05-07 07:59 | 43.20199 | 92.19643 | 36016 ft | 458 kts | 288° |
| 2026-05-07 08:00 | 43.22136 | 92.11427 | 36014 ft | 458 kts | 288° |
| 2026-05-07 08:00 | 43.24091 | 92.03103 | 35993 ft | 457 kts | 288° |
| 2026-05-07 08:01 | 43.26040 | 91.94776 | 35997 ft | 457 kts | 288° |
| 2026-05-07 08:01 | 43.27972 | 91.86487 | 35999 ft | 458 kts | 288° |
| 2026-05-07 08:02 | 43.29908 | 91.78152 | 35997 ft | 459 kts | 288° |
| 2026-05-07 08:02 | 43.31844 | 91.69785 | 35990 ft | 459 kts | 288° |
| 2026-05-07 08:03 | 43.33767 | 91.61442 | 35984 ft | 459 kts | 288° |
| 2026-05-07 08:03 | 43.35679 | 91.53115 | 35996 ft | 460 kts | 288° |
| 2026-05-07 08:04 | 43.37599 | 91.44722 | 35995 ft | 460 kts | 288° |
| 2026-05-07 08:04 | 43.39519 | 91.36302 | 36008 ft | 460 kts | 288° |
| 2026-05-07 08:05 | 43.41415 | 91.27935 | 36006 ft | 460 kts | 288° |
| 2026-05-07 08:05 | 43.43307 | 91.19519 | 36007 ft | 460 kts | 288° |
| 2026-05-07 08:06 | 43.45180 | 91.11152 | 36013 ft | 459 kts | 288° |
| 2026-05-07 08:06 | 43.47058 | 91.02737 | 36026 ft | 459 kts | 288° |
| 2026-05-07 08:07 | 43.48930 | 90.94320 | 36030 ft | 458 kts | 288° |
| 2026-05-07 08:07 | 43.50791 | 90.85913 | 36039 ft | 459 kts | 287° |
| 2026-05-07 08:08 | 43.52636 | 90.77555 | 36043 ft | 459 kts | 287° |
| 2026-05-07 08:08 | 43.54488 | 90.69127 | 36050 ft | 459 kts | 287° |
| 2026-05-07 08:09 | 43.56338 | 90.60671 | 36062 ft | 460 kts | 287° |
| 2026-05-07 08:09 | 43.58185 | 90.52203 | 36063 ft | 461 kts | 287° |
| 2026-05-07 08:10 | 43.60016 | 90.43762 | 36072 ft | 462 kts | 287° |
| 2026-05-07 08:10 | 43.61859 | 90.35236 | 36074 ft | 462 kts | 287° |
| 2026-05-07 08:11 | 43.63682 | 90.26780 | 36069 ft | 462 kts | 287° |
| 2026-05-07 08:11 | 43.65509 | 90.18266 | 36070 ft | 462 kts | 287° |
| 2026-05-07 08:12 | 43.67330 | 90.09740 | 36060 ft | 462 kts | 287° |
| 2026-05-07 08:12 | 43.69189 | 90.01310 | 36056 ft | 461 kts | 288° |
| 2026-05-07 08:13 | 43.71132 | 89.92861 | 36043 ft | 461 kts | 288° |
| 2026-05-07 08:13 | 43.73063 | 89.84403 | 36037 ft | 460 kts | 288° |
| 2026-05-07 08:14 | 43.74971 | 89.75954 | 36033 ft | 459 kts | 288° |
| 2026-05-07 08:14 | 43.76857 | 89.67559 | 36027 ft | 459 kts | 288° |
| 2026-05-07 08:15 | 43.78749 | 89.59106 | 36032 ft | 459 kts | 288° |
| 2026-05-07 08:15 | 43.80626 | 89.50702 | 36027 ft | 459 kts | 288° |
| 2026-05-07 08:16 | 43.82575 | 89.42263 | 36031 ft | 459 kts | 289° |
| 2026-05-07 08:16 | 43.84550 | 89.33825 | 36027 ft | 459 kts | 288° |
| 2026-05-07 08:17 | 43.86498 | 89.25435 | 36032 ft | 459 kts | 288° |
| 2026-05-07 08:17 | 43.88444 | 89.16987 | 36042 ft | 459 kts | 288° |
| 2026-05-07 08:18 | 43.90370 | 89.08587 | 36045 ft | 459 kts | 288° |
| 2026-05-07 08:18 | 43.92299 | 89.00145 | 36047 ft | 459 kts | 288° |
| 2026-05-07 08:19 | 43.94223 | 88.91689 | 36056 ft | 459 kts | 288° |
| 2026-05-07 08:19 | 43.96140 | 88.83244 | 36060 ft | 459 kts | 288° |
| 2026-05-07 08:20 | 43.98091 | 88.75018 | 36059 ft | 458 kts | 290° |
| 2026-05-07 08:20 | 44.00235 | 88.66693 | 36064 ft | 458 kts | 290° |
| 2026-05-07 08:21 | 44.02357 | 88.58422 | 36064 ft | 458 kts | 290° |
| 2026-05-07 08:21 | 44.04465 | 88.50070 | 36067 ft | 457 kts | 290° |
| 2026-05-07 08:22 | 44.06554 | 88.41718 | 36065 ft | 457 kts | 290° |
| 2026-05-07 08:22 | 44.08637 | 88.33364 | 36056 ft | 457 kts | 289° |
| 2026-05-07 08:23 | 44.10719 | 88.24984 | 36049 ft | 457 kts | 289° |
| 2026-05-07 08:23 | 44.12793 | 88.16609 | 36028 ft | 457 kts | 289° |
| 2026-05-07 08:24 | 44.14859 | 88.08241 | 36021 ft | 457 kts | 289° |
| 2026-05-07 08:24 | 44.17139 | 87.99988 | 36008 ft | 456 kts | 297° |
| 2026-05-07 08:25 | 44.20372 | 87.92448 | 35989 ft | 456 kts | 307° |
| 2026-05-07 08:25 | 44.24220 | 87.85423 | 35984 ft | 456 kts | 307° |
| 2026-05-07 08:26 | 44.29980 | 87.74862 | 35979 ft | 456 kts | 307° |
| 2026-05-07 08:26 | 44.33788 | 87.67787 | 35977 ft | 455 kts | 307° |
| 2026-05-07 08:27 | 44.37648 | 87.60749 | 35971 ft | 456 kts | 308° |
| 2026-05-07 08:27 | 44.41518 | 87.53738 | 35973 ft | 455 kts | 308° |
| 2026-05-07 08:28 | 44.45376 | 87.46711 | 35970 ft | 455 kts | 307° |
| 2026-05-07 08:28 | 44.49226 | 87.39666 | 35973 ft | 455 kts | 308° |
| 2026-05-07 08:29 | 44.53047 | 87.32660 | 35972 ft | 455 kts | 308° |
| 2026-05-07 08:29 | 44.56913 | 87.25636 | 35972 ft | 455 kts | 309° |
| 2026-05-07 08:30 | 44.60921 | 87.18771 | 35975 ft | 454 kts | 310° |
| 2026-05-07 08:30 | 44.64932 | 87.11908 | 35972 ft | 455 kts | 309° |
| 2026-05-07 08:31 | 44.68924 | 87.04997 | 35967 ft | 455 kts | 309° |
| 2026-05-07 08:31 | 44.72904 | 86.98082 | 35975 ft | 455 kts | 309° |
| 2026-05-07 08:32 | 44.76891 | 86.91161 | 35971 ft | 455 kts | 309° |
| 2026-05-07 08:32 | 44.80859 | 86.84261 | 35970 ft | 455 kts | 309° |
| 2026-05-07 08:33 | 44.84832 | 86.77316 | 35969 ft | 456 kts | 309° |
| 2026-05-07 08:33 | 44.88774 | 86.70304 | 35964 ft | 456 kts | 309° |
| 2026-05-07 08:34 | 44.92703 | 86.63273 | 35964 ft | 456 kts | 309° |
| 2026-05-07 08:34 | 44.96629 | 86.56242 | 35963 ft | 456 kts | 309° |
| 2026-05-07 08:35 | 45.00554 | 86.49205 | 35963 ft | 456 kts | 309° |
| 2026-05-07 08:35 | 45.04477 | 86.42155 | 35961 ft | 456 kts | 309° |
| 2026-05-07 08:36 | 45.08394 | 86.35098 | 35956 ft | 456 kts | 309° |
| 2026-05-07 08:36 | 45.12282 | 86.28077 | 35964 ft | 456 kts | 309° |
| 2026-05-07 08:37 | 45.16192 | 86.20996 | 35958 ft | 456 kts | 309° |
| 2026-05-07 08:37 | 45.20098 | 86.13906 | 35948 ft | 456 kts | 309° |
| 2026-05-07 08:38 | 45.24001 | 86.06805 | 35947 ft | 456 kts | 309° |
| 2026-05-07 08:38 | 45.27897 | 85.99697 | 35949 ft | 456 kts | 309° |
| 2026-05-07 08:39 | 45.31796 | 85.92568 | 35945 ft | 456 kts | 309° |
| 2026-05-07 08:39 | 45.35686 | 85.85435 | 35937 ft | 457 kts | 309° |
| 2026-05-07 08:40 | 45.39574 | 85.78287 | 35938 ft | 457 kts | 309° |
| 2026-05-07 08:40 | 45.43431 | 85.71181 | 35938 ft | 457 kts | 309° |
| 2026-05-07 08:41 | 45.47313 | 85.64010 | 35929 ft | 456 kts | 309° |
| 2026-05-07 08:41 | 45.51187 | 85.56833 | 35930 ft | 456 kts | 309° |
| 2026-05-07 08:42 | 45.55055 | 85.49652 | 35931 ft | 456 kts | 309° |
| 2026-05-07 08:42 | 45.58892 | 85.42510 | 35933 ft | 455 kts | 309° |
| 2026-05-07 08:43 | 45.62740 | 85.35327 | 35933 ft | 455 kts | 309° |
| 2026-05-07 08:43 | 45.66578 | 85.28146 | 35931 ft | 454 kts | 309° |
| 2026-05-07 08:44 | 45.70408 | 85.20965 | 35933 ft | 453 kts | 309° |
| 2026-05-07 08:44 | 45.74242 | 85.13802 | 35937 ft | 452 kts | 309° |
| 2026-05-07 08:45 | 45.78069 | 85.06652 | 35945 ft | 451 kts | 309° |
| 2026-05-07 08:45 | 45.81883 | 84.99500 | 35949 ft | 451 kts | 309° |
| 2026-05-07 08:46 | 45.85658 | 84.92402 | 35950 ft | 450 kts | 309° |
| 2026-05-07 08:46 | 45.89455 | 84.85242 | 35951 ft | 450 kts | 309° |
| 2026-05-07 08:47 | 45.93239 | 84.78088 | 35951 ft | 449 kts | 309° |
| 2026-05-07 08:47 | 45.96380 | 84.72138 | 35953 ft | 449 kts | 309° |
| 2026-05-07 08:48 | 46.00757 | 84.63822 | 35953 ft | 448 kts | 308° |
| 2026-05-07 08:48 | 46.04512 | 84.56668 | 35953 ft | 447 kts | 308° |
| 2026-05-07 08:49 | 46.08258 | 84.49515 | 35957 ft | 447 kts | 308° |
| 2026-05-07 08:49 | 46.11995 | 84.42357 | 35965 ft | 447 kts | 308° |
| 2026-05-07 08:50 | 46.15125 | 84.36350 | 35974 ft | 447 kts | 308° |
| 2026-05-07 08:50 | 46.18825 | 84.29232 | 35974 ft | 446 kts | 308° |
| 2026-05-07 08:51 | 46.22547 | 84.22055 | 35980 ft | 446 kts | 308° |
| 2026-05-07 08:51 | 46.26257 | 84.14882 | 35981 ft | 445 kts | 308° |
| 2026-05-07 08:52 | 46.29947 | 84.07702 | 35970 ft | 445 kts | 308° |
| 2026-05-07 08:52 | 46.33625 | 84.00508 | 35979 ft | 445 kts | 308° |
| 2026-05-07 08:53 | 46.37302 | 83.93298 | 35957 ft | 445 kts | 308° |
| 2026-05-07 08:53 | 46.40971 | 83.86086 | 35959 ft | 445 kts | 308° |
| 2026-05-07 08:54 | 46.44640 | 83.78860 | 35949 ft | 445 kts | 307° |
| 2026-05-07 08:54 | 46.48301 | 83.71629 | 35950 ft | 444 kts | 307° |
| 2026-05-07 08:55 | 46.51954 | 83.64396 | 35947 ft | 444 kts | 307° |
| 2026-05-07 08:55 | 46.55600 | 83.57157 | 35948 ft | 444 kts | 307° |
| 2026-05-07 08:56 | 46.59234 | 83.49920 | 35953 ft | 443 kts | 307° |
| 2026-05-07 08:56 | 46.62865 | 83.42676 | 35955 ft | 442 kts | 307° |
| 2026-05-07 08:57 | 46.66443 | 83.35399 | 35959 ft | 442 kts | 304° |
| 2026-05-07 08:57 | 46.69712 | 83.27901 | 35960 ft | 441 kts | 303° |
| 2026-05-07 08:58 | 46.72962 | 83.20315 | 35963 ft | 441 kts | 303° |
| 2026-05-07 08:58 | 46.76218 | 83.12748 | 35960 ft | 440 kts | 303° |
| 2026-05-07 08:59 | 46.79472 | 83.05192 | 35963 ft | 440 kts | 303° |
| 2026-05-07 08:59 | 46.82720 | 82.97633 | 35971 ft | 439 kts | 303° |
| 2026-05-07 09:00 | 46.85595 | 82.89774 | 35975 ft | 440 kts | 292° |
| 2026-05-07 09:00 | 46.87353 | 82.81189 | 35974 ft | 443 kts | 282° |
| 2026-05-07 09:01 | 46.88281 | 82.72290 | 35986 ft | 443 kts | 280° |
| 2026-05-07 09:01 | 46.89140 | 82.63358 | 35976 ft | 444 kts | 280° |
| 2026-05-07 09:02 | 46.90024 | 82.54418 | 35979 ft | 444 kts | 281° |
| 2026-05-07 09:02 | 46.90917 | 82.45540 | 35978 ft | 444 kts | 281° |
| 2026-05-07 09:03 | 46.91812 | 82.36609 | 35982 ft | 444 kts | 281° |
| 2026-05-07 09:03 | 46.92699 | 82.27675 | 35978 ft | 443 kts | 281° |
| 2026-05-07 09:04 | 46.93579 | 82.18735 | 35981 ft | 443 kts | 280° |
| 2026-05-07 09:04 | 46.94446 | 82.09854 | 35970 ft | 443 kts | 280° |
| 2026-05-07 09:05 | 46.95313 | 82.00906 | 35966 ft | 443 kts | 280° |
| 2026-05-07 09:05 | 46.96171 | 81.91972 | 35965 ft | 443 kts | 280° |
| 2026-05-07 09:06 | 46.97009 | 81.83022 | 35961 ft | 443 kts | 279° |
| 2026-05-07 09:06 | 46.97831 | 81.74122 | 35959 ft | 443 kts | 279° |
| 2026-05-07 09:07 | 46.98652 | 81.65167 | 35961 ft | 443 kts | 279° |
| 2026-05-07 09:07 | 46.99468 | 81.56196 | 35959 ft | 444 kts | 279° |
| 2026-05-07 09:08 | 47.00278 | 81.47224 | 35949 ft | 444 kts | 279° |
| 2026-05-07 09:08 | 47.01075 | 81.38315 | 35954 ft | 444 kts | 279° |
| 2026-05-07 09:09 | 47.01870 | 81.29338 | 35956 ft | 443 kts | 279° |
| 2026-05-07 09:09 | 47.02658 | 81.20371 | 35957 ft | 443 kts | 279° |
| 2026-05-07 09:10 | 47.03438 | 81.11406 | 35951 ft | 443 kts | 278° |
| 2026-05-07 09:10 | 47.04212 | 81.02435 | 35955 ft | 443 kts | 278° |
| 2026-05-07 09:11 | 47.04979 | 80.93471 | 35957 ft | 443 kts | 278° |
| 2026-05-07 09:11 | 47.05740 | 80.84500 | 35951 ft | 443 kts | 278° |
| 2026-05-07 09:12 | 47.06489 | 80.75596 | 35951 ft | 442 kts | 278° |
| 2026-05-07 09:12 | 47.07235 | 80.66640 | 35951 ft | 442 kts | 278° |
| 2026-05-07 09:13 | 47.07975 | 80.57675 | 35946 ft | 442 kts | 278° |
| 2026-05-07 09:13 | 47.08706 | 80.48724 | 35943 ft | 442 kts | 278° |
| 2026-05-07 09:14 | 47.09431 | 80.39767 | 35944 ft | 442 kts | 277° |
| 2026-05-07 09:14 | 47.10148 | 80.30818 | 35940 ft | 442 kts | 277° |
| 2026-05-07 09:15 | 47.10858 | 80.21857 | 35943 ft | 441 kts | 277° |
| 2026-05-07 09:15 | 47.11557 | 80.12952 | 35940 ft | 441 kts | 277° |
| 2026-05-07 09:16 | 47.12252 | 80.04005 | 35937 ft | 441 kts | 277° |
| 2026-05-07 09:16 | 47.12942 | 79.95052 | 35939 ft | 441 kts | 277° |
| 2026-05-07 09:17 | 47.13623 | 79.86108 | 35935 ft | 441 kts | 277° |
| 2026-05-07 09:17 | 47.14307 | 79.77164 | 35936 ft | 441 kts | 277° |
| 2026-05-07 09:18 | 47.14990 | 79.68204 | 35937 ft | 441 kts | 277° |
| 2026-05-07 09:18 | 47.15665 | 79.59253 | 35939 ft | 441 kts | 276° |
| 2026-05-07 09:19 | 47.16333 | 79.50288 | 35938 ft | 441 kts | 276° |
| 2026-05-07 09:19 | 47.16990 | 79.41371 | 35941 ft | 442 kts | 276° |
| 2026-05-07 09:20 | 47.17646 | 79.32372 | 35939 ft | 442 kts | 276° |
| 2026-05-07 09:20 | 47.18295 | 79.23384 | 35941 ft | 442 kts | 276° |
| 2026-05-07 09:21 | 47.18939 | 79.14369 | 35941 ft | 443 kts | 276° |
| 2026-05-07 09:21 | 47.19562 | 79.05424 | 35944 ft | 443 kts | 276° |
| 2026-05-07 09:22 | 47.20180 | 78.96395 | 35945 ft | 443 kts | 276° |
| 2026-05-07 09:22 | 47.20793 | 78.87369 | 35948 ft | 444 kts | 276° |
| 2026-05-07 09:23 | 47.21399 | 78.78332 | 35948 ft | 444 kts | 275° |
| 2026-05-07 09:23 | 47.21999 | 78.69298 | 35954 ft | 444 kts | 275° |
| 2026-05-07 09:24 | 47.22591 | 78.60257 | 35955 ft | 444 kts | 275° |
| 2026-05-07 09:24 | 47.23177 | 78.51217 | 35955 ft | 444 kts | 275° |
| 2026-05-07 09:25 | 47.23751 | 78.42234 | 35953 ft | 444 kts | 275° |
| 2026-05-07 09:25 | 47.24322 | 78.33190 | 35956 ft | 444 kts | 275° |
| 2026-05-07 09:26 | 47.24886 | 78.24150 | 35959 ft | 444 kts | 274° |
| 2026-05-07 09:26 | 47.25443 | 78.15100 | 35957 ft | 444 kts | 274° |
| 2026-05-07 09:27 | 47.25993 | 78.06042 | 35956 ft | 444 kts | 274° |
| 2026-05-07 09:28 | 47.26805 | 77.92460 | 35955 ft | 444 kts | 274° |
| 2026-05-07 09:28 | 47.27337 | 77.83390 | 35954 ft | 444 kts | 274° |